Time;durP1;ratioP1;P1;durP2;ratioP2;P2;SDS_P1;SDS_P2;PMS_P1;PMS_P2;Temp;Humidity;BMP_temperature;BMP_pressure;BME280_temperature;BME280_humidity;BME280_pressure;Samples;Min_cycle;Max_cycle;Signal;HPM_P1;HPM_P2
2023/09/25 00:00:12;;;;;;;4.57;1.23;;;15.00;99.90;;;15.38;59.28;101188.38;4835570;29;20055;-82
2023/09/25 00:02:39;;;;;;;3.22;1.20;;;15.00;99.90;;;15.40;59.79;101188.97;4829139;29;20060;-82
2023/09/25 00:05:08;;;;;;;5.40;1.58;;;15.00;99.90;;;15.42;59.89;101182.31;4851739;29;20356;-82
2023/09/25 00:07:35;;;;;;;4.60;1.65;;;15.00;99.90;;;15.43;60.04;101183.13;4828343;29;20133;-82
2023/09/25 00:10:07;;;;;;;4.95;1.30;;;15.00;99.90;;;15.40;59.26;101175.53;4848616;29;20057;-82
2023/09/25 00:12:34;;;;;;;4.20;1.30;;;15.00;99.90;;;15.39;58.71;101179.25;4821852;29;20529;-82
2023/09/25 00:15:05;;;;;;;3.92;1.40;;;15.00;99.90;;;15.42;59.03;101176.09;4845201;29;20058;-82
2023/09/25 00:17:34;;;;;;;3.30;1.40;;;15.10;99.90;;;15.43;58.73;101172.38;4835857;29;20429;-82
2023/09/25 00:20:04;;;;;;;3.95;1.30;;;15.00;99.90;;;15.43;58.96;101161.63;4850148;29;20054;-82
2023/09/25 00:22:31;;;;;;;3.58;1.40;;;15.10;99.90;;;15.44;59.23;101169.47;4847131;29;20065;-82
2023/09/25 00:24:59;;;;;;;6.28;1.42;;;15.10;99.90;;;15.42;58.29;101171.56;4832129;29;20050;-82
2023/09/25 00:27:31;;;;;;;2.90;1.30;;;15.10;99.90;;;15.41;58.47;101174.47;4833903;29;20047;-82
2023/09/25 00:29:59;;;;;;;3.05;1.30;;;15.10;99.90;;;15.42;58.46;101181.47;4832765;29;20511;-82
2023/09/25 00:32:26;;;;;;;3.08;1.20;;;15.10;99.90;;;15.40;58.34;101178.22;4846967;29;20072;-82
2023/09/25 00:34:54;;;;;;;3.40;1.50;;;15.10;99.90;;;15.41;58.39;101174.47;4836687;29;20085;-81
2023/09/25 00:37:23;;;;;;;4.40;1.33;;;15.10;99.90;;;15.45;58.60;101186.41;4850461;29;20092;-82
2023/09/25 00:39:51;;;;;;;4.18;1.30;;;15.20;99.90;;;15.44;58.11;101188.28;4835261;29;20078;-82
2023/09/25 00:42:18;;;;;;;2.65;1.20;;;15.10;99.90;;;15.43;58.21;101194.72;4852031;29;20512;-82
2023/09/25 00:44:47;;;;;;;3.78;1.40;;;15.20;99.90;;;15.46;57.99;101194.25;4834907;29;20061;-82
2023/09/25 00:47:15;;;;;;;4.57;1.40;;;15.20;99.90;;;15.48;58.06;101194.03;4831118;29;20058;-82
2023/09/25 00:49:43;;;;;;;6.65;1.55;;;15.20;99.90;;;15.50;58.67;101193.81;4816475;29;20459;-82
2023/09/25 00:52:12;;;;;;;4.30;1.33;;;15.20;99.90;;;15.50;59.01;101183.88;4806788;29;20054;-82
2023/09/25 00:54:40;;;;;;;3.88;1.20;;;15.20;99.90;;;15.47;58.91;101178.97;4833275;29;20056;-82
2023/09/25 00:57:07;;;;;;;4.30;1.55;;;15.10;99.90;;;15.46;59.25;101174.59;4816966;29;20058;-82
2023/09/25 00:59:36;;;;;;;2.40;1.13;;;15.10;99.90;;;15.46;58.65;101178.09;4816884;29;20113;-82
2023/09/25 01:02:05;;;;;;;3.33;1.20;;;15.10;99.90;;;15.48;58.63;101177.09;4833796;29;20106;-82
2023/09/25 01:04:32;;;;;;;2.97;1.20;;;15.10;99.90;;;15.43;58.77;101178.59;4840899;29;20062;-82
2023/09/25 01:07:01;;;;;;;3.95;1.50;;;15.10;99.90;;;15.45;58.96;101183.72;4832634;29;20057;-82
2023/09/25 01:09:31;;;;;;;2.60;1.15;;;15.10;99.90;;;15.49;58.15;101186.78;4807038;29;20046;-82
2023/09/25 01:12:00;;;;;;;3.38;1.23;;;15.10;99.90;;;15.46;58.02;101183.50;4834646;29;20045;-82
2023/09/25 01:14:28;;;;;;;3.05;1.27;;;15.10;99.90;;;15.48;57.56;101182.47;4818799;29;20080;-82
2023/09/25 01:16:55;;;;;;;3.97;1.30;;;15.10;99.90;;;15.49;57.74;101181.41;4834166;29;20045;-82
2023/09/25 01:19:24;;;;;;;5.25;1.50;;;15.10;99.90;;;15.49;57.51;101182.22;4850653;29;20494;-82
2023/09/25 01:21:53;;;;;;;4.43;1.40;;;15.20;99.90;;;15.46;56.98;101179.97;4850360;29;20042;-82
2023/09/25 01:24:21;;;;;;;3.67;1.30;;;15.10;99.90;;;15.49;57.18;101181.41;4834706;29;20050;-82
2023/09/25 01:26:48;;;;;;;3.35;1.20;;;15.20;99.90;;;15.51;57.53;101177.44;4836619;29;20042;-82
2023/09/25 01:29:17;;;;;;;5.75;1.52;;;15.20;99.90;;;15.49;57.05;101170.66;4834445;29;20045;-82
2023/09/25 01:31:45;;;;;;;3.45;1.33;;;15.20;99.90;;;15.46;56.56;101178.09;4835445;29;20053;-82
2023/09/25 01:34:15;;;;;;;5.30;1.42;;;15.20;99.90;;;15.47;57.19;101184.34;4851016;29;20049;-82
2023/09/25 01:36:43;;;;;;;4.60;1.40;;;15.20;99.90;;;15.48;57.27;101179.78;4815009;29;20050;-82
2023/09/25 01:39:14;;;;;;;3.67;1.23;;;15.10;99.90;;;15.40;56.63;101184.41;4819362;29;20084;-82
2023/09/25 01:41:42;;;;;;;4.88;1.45;;;15.10;99.90;;;15.44;57.86;101180.22;4816515;29;20505;-82
2023/09/25 01:44:09;;;;;;;6.03;1.30;;;15.10;99.90;;;15.43;56.99;101181.28;4816753;29;20042;-82
2023/09/25 01:46:36;;;;;;;5.00;1.40;;;15.20;99.90;;;15.41;56.79;101186.03;4816117;29;20058;-82
2023/09/25 01:49:04;;;;;;;3.45;1.30;;;15.10;99.90;;;15.42;57.23;101190.38;4841021;29;20057;-82
2023/09/25 01:51:32;;;;;;;4.68;1.60;;;15.10;99.90;;;15.35;57.51;101183.44;4831872;29;20058;-82
2023/09/25 01:53:59;;;;;;;3.28;1.40;;;15.00;99.90;;;15.34;56.85;101190.69;4829273;29;20118;-82
2023/09/25 01:56:29;;;;;;;2.97;1.55;;;15.00;99.90;;;15.33;57.87;101191.75;4836338;29;20050;-82
2023/09/25 01:58:57;;;;;;;3.35;1.25;;;15.00;99.90;;;15.34;57.29;101188.00;4849676;29;20066;-82
2023/09/25 02:01:25;;;;;;;4.40;1.10;;;15.10;99.90;;;15.35;56.67;101194.19;4833160;29;20050;-82
2023/09/25 02:03:53;;;;;;;3.88;1.35;;;15.00;99.90;;;15.38;57.28;101185.69;4830211;29;20083;-82
2023/09/25 02:06:21;;;;;;;4.70;1.75;;;15.10;99.90;;;15.36;57.31;101191.25;4817064;29;20055;-82
2023/09/25 02:08:48;;;;;;;3.72;1.50;;;15.10;99.90;;;15.37;57.23;101189.41;4842192;29;20048;-82
2023/09/25 02:11:18;;;;;;;3.03;1.27;;;15.00;99.90;;;15.35;57.39;101196.88;4847457;29;20050;-82
2023/09/25 02:13:47;;;;;;;2.75;1.25;;;15.00;99.90;;;15.26;57.18;101185.59;4824899;29;20041;-82
2023/09/25 02:16:14;;;;;;;4.13;1.30;;;15.00;99.90;;;15.31;57.75;101195.69;4836372;29;20583;-82
2023/09/25 02:18:42;;;;;;;3.13;1.48;;;15.00;99.90;;;15.32;57.24;101198.13;4815642;29;20522;-82
2023/09/25 02:21:10;;;;;;;2.88;1.20;;;15.00;99.90;;;15.33;57.11;101199.81;4834832;29;20045;-82
2023/09/25 02:23:39;;;;;;;6.85;1.50;;;15.00;99.90;;;15.34;57.19;101190.69;4809472;29;20110;-82
2023/09/25 02:26:06;;;;;;;4.60;1.55;;;15.00;99.90;;;15.32;57.16;101195.44;4819228;29;20046;-82
2023/09/25 02:28:34;;;;;;;3.10;1.40;;;15.00;99.90;;;15.33;57.48;101193.59;4818301;29;20053;-82
2023/09/25 02:31:03;;;;;;;3.35;1.42;;;15.00;99.90;;;15.31;57.97;101188.44;4835207;29;20054;-82
2023/09/25 02:33:33;;;;;;;2.70;1.40;;;15.00;99.90;;;15.32;57.00;101190.06;4825849;29;20077;-82
2023/09/25 02:36:05;;;;;;;3.22;1.23;;;15.00;99.90;;;15.33;57.80;101189.03;4842792;29;20063;-82
2023/09/25 02:38:32;;;;;;;3.78;1.38;;;15.00;99.90;;;15.33;57.83;101190.91;4851301;29;20050;-82
2023/09/25 02:41:00;;;;;;;3.55;1.50;;;15.00;99.90;;;15.31;57.64;101193.81;4837372;29;20046;-82
2023/09/25 02:43:28;;;;;;;3.45;1.30;;;15.00;99.90;;;15.29;57.45;101192.41;4850657;29;20050;-82
2023/09/25 02:45:56;;;;;;;3.70;1.40;;;15.00;99.90;;;15.29;57.37;101200.47;4829856;29;20050;-82
2023/09/25 02:48:25;;;;;;;3.28;1.40;;;15.00;99.90;;;15.30;57.08;101194.88;4835981;29;20038;-82
2023/09/25 02:50:53;;;;;;;4.88;1.45;;;14.90;99.90;;;15.32;57.70;101203.50;4836891;29;20074;-82
2023/09/25 02:53:20;;;;;;;3.53;1.30;;;15.00;99.90;;;15.30;58.09;101197.53;4820629;29;20140;-82
2023/09/25 02:55:50;;;;;;;4.68;1.20;;;14.90;99.90;;;15.27;57.96;101203.34;4831365;29;20110;-82
2023/09/25 02:58:19;;;;;;;3.13;1.30;;;14.90;99.90;;;15.27;57.94;101206.06;4836237;29;20102;-82
2023/09/25 03:00:46;;;;;;;2.95;1.40;;;14.90;99.90;;;15.27;57.61;101194.47;4835929;29;20050;-82
2023/09/25 03:03:14;;;;;;;3.33;1.42;;;14.90;99.90;;;15.26;57.50;101206.28;4803699;29;20047;-82
2023/09/25 03:05:43;;;;;;;3.00;1.13;;;14.90;99.90;;;15.25;57.73;101205.47;4825855;29;20514;-82
2023/09/25 03:08:11;;;;;;;2.33;1.10;;;14.90;99.90;;;15.26;58.35;101206.28;4831880;29;20107;-82
2023/09/25 03:10:39;;;;;;;4.78;1.23;;;14.90;99.90;;;15.27;58.39;101202.53;4833279;29;20051;-82
2023/09/25 03:13:06;;;;;;;3.55;1.27;;;14.90;99.90;;;15.24;58.02;101211.88;4845080;29;20073;-82
2023/09/25 03:15:34;;;;;;;3.15;1.33;;;14.90;99.90;;;15.23;57.96;101215.63;4830348;29;20566;-82
2023/09/25 03:18:01;;;;;;;6.20;1.42;;;14.80;99.90;;;15.18;57.91;101210.91;4825328;29;20103;-82
2023/09/25 03:20:29;;;;;;;5.32;1.65;;;14.80;99.90;;;15.12;58.11;101216.34;4832861;29;20122;-82
2023/09/25 03:22:59;;;;;;;3.95;1.63;;;14.80;99.90;;;15.12;57.90;101224.41;4832450;29;20050;-82
2023/09/25 03:25:26;;;;;;;5.70;1.50;;;14.80;99.90;;;15.10;57.99;101221.13;4804690;29;20046;-82
2023/09/25 03:27:54;;;;;;;3.50;1.35;;;14.80;99.90;;;15.12;58.34;101227.09;4840167;29;20578;-82
2023/09/25 03:30:21;;;;;;;3.53;1.27;;;14.80;99.90;;;15.09;57.76;101219.50;4817789;29;20071;-82
2023/09/25 03:32:52;;;;;;;3.50;1.30;;;14.80;99.90;;;15.11;58.66;101222.78;4846852;29;20501;-82
2023/09/25 03:35:19;;;;;;;4.07;1.50;;;14.80;99.90;;;15.10;58.41;101223.81;4836206;29;20509;-82
2023/09/25 03:37:47;;;;;;;4.00;1.48;;;14.80;99.90;;;15.07;58.02;101225.06;4851339;29;20042;-82
2023/09/25 03:40:16;;;;;;;4.75;1.58;;;14.80;99.90;;;15.10;58.67;101221.94;4836145;29;20061;-82
2023/09/25 03:42:43;;;;;;;3.90;1.52;;;14.80;99.90;;;15.11;58.45;101225.47;4824495;29;20122;-82
2023/09/25 03:45:11;;;;;;;3.50;1.50;;;14.80;99.90;;;15.12;58.48;101229.78;4836127;29;20046;-82
2023/09/25 03:47:39;;;;;;;5.22;1.70;;;14.80;99.90;;;15.09;58.51;101233.75;4833523;29;20053;-82
2023/09/25 03:50:10;;;;;;;4.45;1.55;;;14.80;99.90;;;15.05;58.76;101224.47;4821734;29;20520;-82
2023/09/25 03:52:38;;;;;;;4.38;1.70;;;14.80;99.90;;;15.06;58.80;101238.75;4840612;29;20054;-82
2023/09/25 03:55:06;;;;;;;3.75;1.70;;;14.80;99.90;;;15.07;58.72;101227.75;4833626;29;20043;-82
2023/09/25 03:57:35;;;;;;;3.22;1.30;;;14.70;99.90;;;15.09;59.12;101230.25;4818085;29;20445;-82
2023/09/25 04:00:06;;;;;;;3.25;1.40;;;14.70;99.90;;;15.09;59.44;101228.38;4834319;29;20054;-82
2023/09/25 04:02:39;;;;;;;2.95;1.40;;;14.70;99.90;;;15.10;59.20;101235.38;4845047;29;20513;-82
2023/09/25 04:05:09;;;;;;;3.67;1.50;;;14.70;99.90;;;15.07;59.12;101243.88;4816819;29;20073;-82
2023/09/25 04:07:37;;;;;;;3.20;1.30;;;14.70;99.90;;;15.10;59.11;101237.25;4819849;29;20526;-82
2023/09/25 04:10:07;;;;;;;5.43;1.45;;;14.70;99.90;;;15.11;58.83;101249.63;4819598;29;20146;-82
2023/09/25 04:12:35;;;;;;;3.50;1.30;;;14.70;99.90;;;15.10;59.17;101248.00;4832379;29;20421;-85
2023/09/25 04:15:04;;;;;;;4.38;1.40;;;14.70;99.90;;;15.13;59.19;101236.81;4823736;29;20063;-85
2023/09/25 04:17:35;;;;;;;5.18;1.52;;;14.70;99.90;;;15.11;59.02;101238.88;4831274;29;20092;-85
2023/09/25 04:20:08;;;;;;;5.28;1.63;;;14.70;99.90;;;15.08;59.52;101245.53;4818026;29;20053;-88
2023/09/25 04:22:37;;;;;;;3.83;1.50;;;14.70;99.90;;;15.07;59.32;101243.88;4844078;29;20058;-86
2023/09/25 04:25:08;;;;;;;4.32;1.60;;;14.70;99.90;;;15.10;59.47;101248.00;4833976;29;20046;-85
2023/09/25 04:27:38;;;;;;;3.92;1.45;;;14.70;99.90;;;15.09;59.45;101243.69;4845614;29;20081;-87
2023/09/25 04:30:08;;;;;;;4.65;1.60;;;14.60;99.90;;;15.04;59.74;101244.34;4831520;29;20046;-86
2023/09/25 04:32:37;;;;;;;4.10;1.30;;;14.60;99.90;;;15.03;59.25;101247.22;4845829;29;20517;-86
2023/09/25 04:35:18;;;;;;;3.97;1.50;;;14.70;99.90;;;15.03;59.50;101237.34;4813839;29;20137;-84
2023/09/25 04:37:45;;;;;;;2.65;1.30;;;14.60;99.90;;;14.98;59.48;101233.63;4836011;29;20069;-85
2023/09/25 04:40:22;;;;;;;4.20;1.65;;;14.60;99.90;;;14.97;59.88;101238.19;4847132;29;20128;-85
2023/09/25 04:42:53;;;;;;;6.13;1.73;;;14.60;99.90;;;14.92;58.95;101230.78;4829922;29;20442;-84
2023/09/25 04:45:21;;;;;;;3.23;1.50;;;14.60;99.90;;;14.92;59.70;101222.75;4835197;29;20118;-86
2023/09/25 04:47:51;;;;;;;4.97;1.42;;;14.60;99.90;;;14.94;59.87;101226.03;4833635;29;20048;-83
2023/09/25 04:50:20;;;;;;;3.97;1.58;;;14.60;99.90;;;14.96;59.75;101223.13;4840221;29;20050;-81
2023/09/25 04:52:48;;;;;;;5.90;1.50;;;14.60;99.90;;;14.98;59.61;101225.59;4823461;29;20103;-81
2023/09/25 04:55:16;;;;;;;5.40;1.50;;;14.60;99.90;;;14.98;59.52;101234.47;4822827;29;20061;-81
2023/09/25 04:57:46;;;;;;;3.63;1.48;;;14.60;99.90;;;14.97;59.40;101232.00;4842592;29;20110;-82
2023/09/25 05:00:25;;;;;;;3.60;1.50;;;14.60;99.90;;;14.96;59.66;101241.09;4836498;29;20103;-81
2023/09/25 05:02:54;;;;;;;4.40;1.45;;;14.60;99.90;;;14.97;60.10;101242.75;4834942;29;20046;-82
2023/09/25 05:05:22;;;;;;;4.57;1.60;;;14.50;99.90;;;14.99;59.80;101241.50;4832585;29;20072;-81
2023/09/25 05:07:51;;;;;;;4.07;1.30;;;14.60;99.90;;;14.99;59.76;101241.50;4831420;29;20047;-81
2023/09/25 05:10:21;;;;;;;4.07;1.60;;;14.60;99.90;;;14.99;59.56;101236.13;4825476;29;20046;-81
2023/09/25 05:12:50;;;;;;;6.00;1.57;;;14.50;99.90;;;14.98;59.83;101233.63;4826070;29;20067;-81
2023/09/25 05:15:19;;;;;;;4.47;1.60;;;14.50;99.90;;;14.99;59.65;101240.69;4847601;29;20049;-81
2023/09/25 05:17:48;;;;;;;4.18;1.40;;;14.60;99.90;;;14.99;59.84;101235.31;4817409;29;20050;-83
2023/09/25 05:20:18;;;;;;;4.57;1.75;;;14.60;99.90;;;15.01;59.87;101241.28;4832525;29;20226;-82
2023/09/25 05:22:48;;;;;;;3.10;1.50;;;14.60;99.90;;;15.01;59.70;101233.22;4833125;29;20118;-83
2023/09/25 05:25:17;;;;;;;3.53;1.63;;;14.60;99.90;;;14.97;59.93;101237.38;4822231;29;20065;-83
2023/09/25 05:27:47;;;;;;;7.28;1.60;;;14.50;99.90;;;14.92;59.88;101236.16;4849721;29;20106;-82
2023/09/25 05:30:18;;;;;;;4.90;1.45;;;14.50;99.90;;;14.89;58.95;101239.31;4835420;29;20474;-82
2023/09/25 05:32:48;;;;;;;;;;;14.50;99.90;;;14.88;59.27;101240.38;4836694;29;20056;-82
2023/09/25 05:35:19;;;;;;;4.00;1.60;;;14.40;99.90;;;14.92;59.90;101243.41;4833186;29;20337;-82
2023/09/25 05:37:48;;;;;;;3.65;1.67;;;14.50;99.90;;;14.96;59.76;101233.06;4849736;29;20053;-83
2023/09/25 05:40:18;;;;;;;4.97;1.75;;;14.50;99.90;;;14.95;60.04;101237.59;4827429;29;20085;-82
2023/09/25 05:42:48;;;;;;;4.10;1.20;;;14.60;99.90;;;14.94;59.86;101239.47;4847956;29;20065;-82
2023/09/25 05:45:20;;;;;;;4.07;1.60;;;14.50;99.90;;;14.95;60.15;101240.28;4835761;29;20057;-82
2023/09/25 05:47:48;;;;;;;4.97;1.83;;;14.50;99.90;;;14.88;59.15;101235.00;4833861;29;20046;-81
2023/09/25 05:50:16;;;;;;;4.88;1.70;;;14.50;99.90;;;14.87;59.84;101241.38;4823642;29;20054;-81
2023/09/25 05:52:44;;;;;;;3.50;1.70;;;14.50;99.90;;;14.93;60.12;101237.00;4851144;29;20073;-82
2023/09/25 05:55:11;;;;;;;3.95;1.70;;;14.50;99.90;;;14.96;59.80;101233.06;4833544;29;20569;-82
2023/09/25 05:57:39;;;;;;;4.72;1.83;;;14.60;99.90;;;14.98;60.06;101239.00;4833701;29;20050;-82
2023/09/25 06:00:12;;;;;;;4.85;1.73;;;14.60;99.90;;;14.98;59.89;101239.00;4836754;29;20053;-82
2023/09/25 06:02:41;;;;;;;4.47;1.40;;;14.60;99.90;;;15.01;60.23;101244.78;4836878;29;20044;-82
2023/09/25 06:05:12;;;;;;;3.92;1.80;;;14.60;99.90;;;15.02;60.61;101242.91;4834200;29;20049;-82
2023/09/25 06:07:40;;;;;;;4.78;1.75;;;14.60;99.90;;;15.04;60.90;101240.84;4844412;29;20114;-82
2023/09/25 06:10:11;;;;;;;3.90;1.60;;;14.70;99.90;;;15.07;61.11;101240.38;4824120;29;20502;-82
2023/09/25 06:12:42;;;;;;;3.78;1.70;;;14.60;99.90;;;15.04;60.55;101240.84;4836412;29;20153;-82
2023/09/25 06:15:11;;;;;;;4.60;1.80;;;14.60;99.90;;;15.04;59.71;101238.97;4832932;29;20090;-82
2023/09/25 06:17:42;;;;;;;4.28;1.90;;;14.70;99.90;;;14.98;59.68;101234.47;4830998;29;20059;-81
2023/09/25 06:20:16;;;;;;;3.97;1.75;;;14.70;99.90;;;15.00;59.24;101226.19;4852510;29;20053;-82
2023/09/25 06:22:44;;;;;;;5.03;1.95;;;14.70;99.90;;;15.03;59.27;101231.09;4840219;29;20050;-81
2023/09/25 06:25:14;;;;;;;5.55;1.88;;;14.80;99.90;;;15.04;58.85;101235.47;4825559;29;20130;-82
2023/09/25 06:27:44;;;;;;;4.43;1.50;;;14.80;99.90;;;15.08;58.81;101231.25;4832959;29;20050;-82
2023/09/25 06:30:13;;;;;;;4.50;1.65;;;14.90;99.90;;;15.12;58.87;101237.84;4838469;29;20050;-81
2023/09/25 06:32:42;;;;;;;5.45;1.88;;;14.90;99.90;;;15.14;58.73;101241.97;4839251;29;20521;-82
2023/09/25 06:35:10;;;;;;;3.35;1.52;;;14.90;99.90;;;15.14;58.07;101238.47;4853297;29;20085;-82
2023/09/25 06:37:38;;;;;;;5.15;1.83;;;15.00;99.90;;;15.20;58.92;101237.56;4860085;29;20050;-82
2023/09/25 06:40:09;;;;;;;5.18;1.60;;;15.00;99.90;;;15.23;58.18;101247.06;4858888;29;20056;-81
2023/09/25 06:42:38;;;;;;;4.25;1.77;;;15.00;99.90;;;15.24;57.52;101236.06;4848686;29;20107;-81
2023/09/25 06:45:07;;;;;;;4.75;1.70;;;15.10;99.90;;;15.28;57.58;101234.59;4841212;29;20125;-83
2023/09/25 06:47:37;;;;;;;3.50;1.70;;;15.10;99.90;;;15.29;57.89;101251.53;4841912;29;20102;-82
2023/09/25 06:50:07;;;;;;;4.28;1.75;;;15.10;99.90;;;15.30;57.56;101234.34;4832656;29;20133;-82
2023/09/25 06:52:36;;;;;;;6.03;1.98;;;15.20;99.90;;;15.37;58.07;101237.78;4831681;29;20054;-81
2023/09/25 06:55:04;;;;;;;4.00;1.70;;;15.20;99.90;;;15.40;57.96;101246.22;4828212;29;20066;-81
2023/09/25 06:57:31;;;;;;;5.80;1.80;;;15.30;99.90;;;15.47;58.35;101248.84;4844774;29;20108;-82
2023/09/25 06:59:59;;;;;;;4.38;1.80;;;15.30;99.90;;;15.54;58.52;101238.84;4848758;29;20057;-82
2023/09/25 07:02:26;;;;;;;5.70;2.00;;;15.40;99.90;;;15.57;57.50;101240.28;4836339;29;20079;-82
2023/09/25 07:04:53;;;;;;;4.63;1.60;;;15.50;99.90;;;15.61;57.21;101228.00;4825481;29;20074;-81
2023/09/25 07:07:23;;;;;;;5.20;1.85;;;15.50;99.90;;;15.66;57.04;101226.31;4846053;29;20046;-82
2023/09/25 07:09:52;;;;;;;4.60;2.03;;;15.60;99.90;;;15.68;58.02;101228.78;4819121;29;20133;-82
2023/09/25 07:12:19;;;;;;;4.57;1.90;;;15.60;99.90;;;15.72;57.57;101229.16;4848827;29;20421;-82
2023/09/25 07:14:51;;;;;;;5.03;1.95;;;15.70;99.90;;;15.70;57.00;101232.03;4835143;29;20058;-82
2023/09/25 07:17:19;;;;;;;5.88;2.00;;;15.70;99.90;;;15.75;57.53;101234.88;4820488;29;20062;-82
2023/09/25 07:19:51;;;;;;;5.53;1.70;;;15.70;99.90;;;15.80;57.09;101232.31;4841390;29;20524;-81
2023/09/25 07:22:20;;;;;;;5.20;1.90;;;15.80;99.90;;;15.81;56.35;101228.63;4835653;29;20046;-82
2023/09/25 07:24:49;;;;;;;5.60;1.73;;;15.80;99.90;;;15.84;58.20;101238.91;4850356;29;20102;-81
2023/09/25 07:27:17;;;;;;;3.53;1.80;;;15.90;99.90;;;15.85;56.66;101228.97;4817929;29;20055;-81
2023/09/25 07:29:45;;;;;;;4.32;1.90;;;15.90;99.90;;;15.88;56.37;101229.34;4841350;29;20133;-81
2023/09/25 07:32:14;;;;;;;3.75;1.80;;;15.80;99.90;;;15.91;57.21;101234.28;4852585;29;20129;-81
2023/09/25 07:34:43;;;;;;;4.82;1.60;;;15.90;99.90;;;15.94;56.78;101233.78;4821448;29;20046;-81
2023/09/25 07:37:13;;;;;;;4.82;1.80;;;16.00;99.90;;;16.03;56.78;101238.88;4836434;29;20050;-82
2023/09/25 07:39:41;;;;;;;4.68;2.00;;;16.10;99.90;;;16.09;56.90;101236.06;4852041;29;20050;-81
2023/09/25 07:42:10;;;;;;;4.30;1.80;;;16.10;99.90;;;16.12;56.12;101232.94;4829452;29;20042;-82
2023/09/25 07:44:38;;;;;;;4.88;1.83;;;16.20;99.90;;;16.21;57.06;101239.63;4851421;29;20069;-82
2023/09/25 07:47:10;;;;;;;8.07;2.10;;;16.20;99.90;;;16.26;56.30;101238.94;4851649;29;20069;-81
2023/09/25 07:49:40;;;;;;;4.45;1.80;;;16.30;99.90;;;16.32;55.73;101239.91;4852854;29;20076;-82
2023/09/25 07:52:15;;;;;;;6.50;2.00;;;16.40;99.90;;;16.34;55.77;101232.41;4844716;29;20046;-81
2023/09/25 07:54:45;;;;;;;5.07;1.80;;;16.40;99.90;;;16.37;56.40;101237.34;4829170;29;20103;-82
2023/09/25 07:57:16;;;;;;;4.45;1.85;;;16.50;99.90;;;16.39;56.05;101236.03;4835987;29;20054;-82
2023/09/25 07:59:44;;;;;;;5.13;1.80;;;16.50;99.90;;;16.44;55.93;101246.13;4832593;29;20046;-82
2023/09/25 08:02:16;;;;;;;5.22;1.90;;;16.50;99.90;;;16.46;55.47;101235.94;4802985;29;20414;-81
2023/09/25 08:04:44;;;;;;;5.20;2.00;;;16.60;99.90;;;16.51;55.36;101240.66;4844183;29;20054;-82
2023/09/25 08:07:12;;;;;;;6.05;1.92;;;16.60;99.90;;;16.56;55.71;101240.78;4834357;29;20074;-83
2023/09/25 08:09:40;;;;;;;4.05;1.77;;;16.70;99.90;;;16.61;55.34;101243.59;4851641;29;20048;-81
2023/09/25 08:12:07;;;;;;;7.13;1.88;;;16.70;99.90;;;16.66;54.68;101241.00;4824185;29;20111;-82
2023/09/25 08:14:37;;;;;;;5.10;1.70;;;16.80;99.70;;;16.71;53.95;101246.53;4819917;29;20058;-82
2023/09/25 08:17:05;;;;;;;4.15;1.73;;;16.90;99.20;;;16.72;53.94;101235.53;4828723;29;20089;-81
2023/09/25 08:19:33;;;;;;;5.38;1.70;;;16.90;99.10;;;16.77;53.39;101237.53;4835700;29;20059;-81
2023/09/25 08:22:00;;;;;;;3.83;1.50;;;16.90;98.60;;;16.80;53.58;101230.88;4831839;29;20042;-84
2023/09/25 08:24:27;;;;;;;6.85;2.20;;;17.00;98.50;;;16.83;53.73;101235.78;4851352;29;20054;-83
2023/09/25 08:26:57;;;;;;;3.92;1.67;;;17.00;98.20;;;16.88;53.91;101234.00;4851355;29;20053;-82
2023/09/25 08:29:24;;;;;;;5.20;1.70;;;17.10;98.90;;;16.90;53.32;101226.53;4855561;29;20079;-83
2023/09/25 08:31:54;;;;;;;4.03;1.80;;;17.10;97.90;;;16.95;53.27;101223.97;4839261;29;20053;-84
2023/09/25 08:34:21;;;;;;;3.85;1.70;;;17.10;98.20;;;16.99;52.20;101229.72;4856539;29;20045;-82
2023/09/25 08:36:49;;;;;;;5.00;1.60;;;17.20;96.80;;;17.06;53.23;101224.19;4840978;29;20050;-83
2023/09/25 08:39:17;;;;;;;6.00;1.73;;;17.20;97.60;;;17.11;53.96;101229.69;4810084;29;20068;-83
2023/09/25 08:41:46;;;;;;;4.65;1.50;;;17.30;98.30;;;17.18;52.73;101230.41;4855737;29;20069;-82
2023/09/25 08:44:15;;;;;;;3.65;1.98;;;17.30;97.20;;;17.24;53.13;101234.84;4841054;29;20050;-83
2023/09/25 08:46:44;;;;;;;4.18;1.95;;;17.40;97.30;;;17.28;52.54;101236.00;4839850;29;20070;-83
2023/09/25 08:49:14;;;;;;;4.80;1.42;;;17.50;96.70;;;17.30;51.43;101231.19;4842061;29;20046;-83
2023/09/25 08:51:42;;;;;;;5.18;1.60;;;17.50;95.70;;;17.34;52.71;101226.97;4856379;29;20050;-82
2023/09/25 08:54:10;;;;;;;4.35;1.92;;;17.60;96.60;;;17.38;51.58;101214.66;4855967;29;20058;-83
2023/09/25 08:56:39;;;;;;;5.68;1.73;;;17.60;95.40;;;17.44;52.92;101229.88;4857098;29;20079;-83
2023/09/25 08:59:07;;;;;;;7.40;1.90;;;17.70;96.90;;;17.49;53.13;101232.66;4856766;29;20165;-83
2023/09/25 09:01:35;;;;;;;4.45;1.45;;;17.70;97.00;;;17.53;52.19;101235.72;4856516;29;20049;-82
2023/09/25 09:04:03;;;;;;;3.92;1.75;;;17.70;96.10;;;17.58;52.42;101237.72;4853311;29;20054;-82
2023/09/25 09:06:32;;;;;;;6.30;1.65;;;17.80;96.40;;;17.59;51.76;101239.34;4810005;29;20041;-83
2023/09/25 09:08:59;;;;;;;5.30;2.00;;;17.80;95.40;;;17.63;52.05;101235.94;4840607;29;20123;-83
2023/09/25 09:11:27;;;;;;;4.28;1.67;;;17.80;95.80;;;17.67;51.64;101238.97;4839947;29;20049;-83
2023/09/25 09:13:55;;;;;;;4.70;1.80;;;17.90;95.40;;;17.72;50.20;101239.88;4856498;29;20054;-83
2023/09/25 09:16:23;;;;;;;5.30;1.70;;;17.90;94.20;;;17.75;50.02;101239.41;4855668;29;20079;-82
2023/09/25 09:19:05;;;;;;;3.60;1.60;;;18.00;93.20;;;17.79;49.60;101238.94;4837149;29;20057;-83
2023/09/25 09:21:34;;;;;;;4.63;1.90;;;18.00;92.80;;;17.83;51.49;101240.94;4833284;29;20093;-82
2023/09/25 09:24:01;;;;;;;3.72;1.80;;;18.00;94.80;;;17.89;50.78;101234.56;4848808;29;20045;-82
2023/09/25 09:26:30;;;;;;;4.57;1.70;;;18.10;94.20;;;17.90;51.04;101236.19;4822287;29;20156;-82
2023/09/25 09:28:58;;;;;;;6.18;1.50;;;18.10;94.50;;;17.97;51.23;101236.06;4831520;29;20054;-81
2023/09/25 09:31:25;;;;;;;6.88;1.80;;;18.20;94.50;;;18.00;50.82;101230.16;4827465;29;20114;-82
2023/09/25 09:33:55;;;;;;;3.55;1.50;;;18.20;93.80;;;18.05;51.70;101232.16;4850107;29;20049;-81
2023/09/25 09:36:23;;;;;;;6.03;1.70;;;18.20;94.90;;;18.06;50.76;101223.00;4853210;29;20057;-82
2023/09/25 09:38:54;;;;;;;3.45;1.70;;;18.30;93.80;;;18.04;50.18;101231.34;4829150;29;20050;-82
2023/09/25 09:41:22;;;;;;;7.30;1.60;;;18.30;93.30;;;18.08;49.81;101221.69;4844284;29;20497;-82
2023/09/25 09:43:55;;;;;;;3.83;1.70;;;18.30;93.00;;;18.13;50.44;101219.09;4849275;29;20485;-85
2023/09/25 09:46:28;;;;;;;4.22;1.67;;;18.30;93.30;;;18.18;50.51;101219.19;4832125;29;20102;-84
2023/09/25 09:48:56;;;;;;;6.55;1.58;;;18.40;93.40;;;18.21;50.38;101218.69;4848218;29;20052;-85
2023/09/25 09:51:27;;;;;;;4.90;1.67;;;18.40;93.00;;;18.25;50.34;101227.97;4847361;29;20102;-85
2023/09/25 09:54:05;;;;;;;8.73;1.83;;;18.50;93.40;;;18.27;50.17;101225.81;4830148;29;20049;-85
2023/09/25 09:56:35;;;;;;;4.32;1.65;;;18.50;93.00;;;18.35;51.20;101219.22;4832618;29;20532;-85
2023/09/25 09:59:04;;;;;;;5.83;1.87;;;18.60;94.10;;;18.39;50.97;101222.22;4846891;29;20041;-85
2023/09/25 10:01:36;;;;;;;7.22;1.90;;;18.60;94.20;;;18.50;50.26;101213.25;4845744;29;20501;-85
2023/09/25 10:04:06;;;;;;;4.82;1.85;;;18.70;93.50;;;18.51;50.65;101209.47;4829602;29;20121;-83
2023/09/25 10:06:44;;;;;;;5.15;1.60;;;18.70;93.60;;;18.49;51.35;101212.41;4829255;29;20413;-85
2023/09/25 10:09:15;;;;;;;4.72;1.60;;;18.70;93.80;;;18.48;50.54;101204.53;4844433;29;20521;-83
2023/09/25 10:11:44;;;;;;;5.68;1.63;;;18.70;93.40;;;18.47;50.67;101203.72;4843708;29;20058;-85
2023/09/25 10:14:12;;;;;;;5.00;1.58;;;18.70;93.40;;;18.47;50.41;101197.50;4843688;29;20425;-87
2023/09/25 10:17:10;;;;;;;6.10;1.80;;;18.70;93.40;;;18.52;49.55;101201.09;4845093;29;20053;-82
2023/09/25 10:19:49;;;;;;;6.47;1.92;;;18.70;92.20;;;18.57;50.73;101204.97;4772967;30;20048;-82